sensor_id;sensor_type;location;lat;lon;timestamp;P1;durP1;ratioP1;P2;durP2;ratioP2
13404;SDS011;6773;51.192;7.024;2024-01-15T00:01:16;52.13;;;23.00;;
13404;SDS011;6773;51.192;7.024;2024-01-15T00:03:42;46.80;;;18.87;;
13404;SDS011;6773;51.192;7.024;2024-01-15T00:06:08;54.73;;;20.37;;
13404;SDS011;6773;51.192;7.024;2024-01-15T00:08:34;38.73;;;15.03;;
13404;SDS011;6773;51.192;7.024;2024-01-15T00:11:00;38.63;;;17.83;;
13404;SDS011;6773;51.192;7.024;2024-01-15T00:13:26;57.90;;;24.57;;
13404;SDS011;6773;51.192;7.024;2024-01-15T00:15:52;41.53;;;19.37;;
13404;SDS011;6773;51.192;7.024;2024-01-15T00:18:18;38.63;;;18.30;;
13404;SDS011;6773;51.192;7.024;2024-01-15T00:20:44;41.33;;;19.43;;
13404;SDS011;6773;51.192;7.024;2024-01-15T00:23:10;49.43;;;21.80;;
13404;SDS011;6773;51.192;7.024;2024-01-15T00:25:36;38.97;;;18.30;;
13404;SDS011;6773;51.192;7.024;2024-01-15T00:28:01;30.73;;;14.23;;
13404;SDS011;6773;51.192;7.024;2024-01-15T00:30:28;37.53;;;19.17;;
13404;SDS011;6773;51.192;7.024;2024-01-15T00:32:54;44.70;;;19.97;;
13404;SDS011;6773;51.192;7.024;2024-01-15T00:35:19;42.50;;;19.57;;
13404;SDS011;6773;51.192;7.024;2024-01-15T00:37:45;53.57;;;25.07;;
13404;SDS011;6773;51.192;7.024;2024-01-15T00:40:11;41.63;;;20.30;;
13404;SDS011;6773;51.192;7.024;2024-01-15T00:42:37;37.07;;;16.60;;
13404;SDS011;6773;51.192;7.024;2024-01-15T00:45:03;49.90;;;23.17;;
13404;SDS011;6773;51.192;7.024;2024-01-15T00:47:30;36.67;;;16.97;;
13404;SDS011;6773;51.192;7.024;2024-01-15T00:49:56;49.60;;;22.57;;
13404;SDS011;6773;51.192;7.024;2024-01-15T00:52:22;40.53;;;20.17;;
13404;SDS011;6773;51.192;7.024;2024-01-15T00:54:48;41.23;;;19.07;;
13404;SDS011;6773;51.192;7.024;2024-01-15T00:57:14;52.60;;;21.73;;
13404;SDS011;6773;51.192;7.024;2024-01-15T00:59:41;46.23;;;20.00;;
13404;SDS011;6773;51.192;7.024;2024-01-15T01:02:07;46.93;;;22.03;;
13404;SDS011;6773;51.192;7.024;2024-01-15T01:04:33;47.77;;;18.47;;
13404;SDS011;6773;51.192;7.024;2024-01-15T01:06:59;42.63;;;18.47;;
13404;SDS011;6773;51.192;7.024;2024-01-15T01:09:25;53.10;;;23.70;;
13404;SDS011;6773;51.192;7.024;2024-01-15T01:11:54;57.97;;;22.40;;
13404;SDS011;6773;51.192;7.024;2024-01-15T01:14:20;52.57;;;21.27;;
13404;SDS011;6773;51.192;7.024;2024-01-15T01:16:46;41.83;;;19.10;;
13404;SDS011;6773;51.192;7.024;2024-01-15T01:19:11;42.97;;;18.33;;
13404;SDS011;6773;51.192;7.024;2024-01-15T01:21:37;50.00;;;21.23;;
13404;SDS011;6773;51.192;7.024;2024-01-15T01:24:03;51.60;;;22.63;;
13404;SDS011;6773;51.192;7.024;2024-01-15T01:26:30;37.70;;;19.17;;
13404;SDS011;6773;51.192;7.024;2024-01-15T01:28:56;50.23;;;23.27;;
13404;SDS011;6773;51.192;7.024;2024-01-15T01:31:22;53.77;;;21.17;;
13404;SDS011;6773;51.192;7.024;2024-01-15T01:33:49;52.73;;;22.20;;
13404;SDS011;6773;51.192;7.024;2024-01-15T01:36:15;56.47;;;23.43;;
13404;SDS011;6773;51.192;7.024;2024-01-15T01:38:41;52.43;;;24.07;;
13404;SDS011;6773;51.192;7.024;2024-01-15T01:41:07;53.93;;;22.83;;
13404;SDS011;6773;51.192;7.024;2024-01-15T01:43:33;50.90;;;21.80;;
13404;SDS011;6773;51.192;7.024;2024-01-15T01:45:59;37.63;;;18.40;;
13404;SDS011;6773;51.192;7.024;2024-01-15T01:48:26;35.73;;;15.33;;
13404;SDS011;6773;51.192;7.024;2024-01-15T01:50:57;52.73;;;23.23;;
13404;SDS011;6773;51.192;7.024;2024-01-15T01:53:25;51.13;;;22.10;;
13404;SDS011;6773;51.192;7.024;2024-01-15T01:55:52;41.77;;;18.77;;
13404;SDS011;6773;51.192;7.024;2024-01-15T01:58:18;41.67;;;19.70;;
13404;SDS011;6773;51.192;7.024;2024-01-15T02:00:44;44.07;;;18.40;;
13404;SDS011;6773;51.192;7.024;2024-01-15T02:03:10;42.63;;;20.27;;
13404;SDS011;6773;51.192;7.024;2024-01-15T02:05:37;46.57;;;21.43;;
13404;SDS011;6773;51.192;7.024;2024-01-15T02:08:04;36.70;;;17.77;;
13404;SDS011;6773;51.192;7.024;2024-01-15T02:10:30;55.60;;;23.13;;
13404;SDS011;6773;51.192;7.024;2024-01-15T02:12:57;52.40;;;23.97;;
13404;SDS011;6773;51.192;7.024;2024-01-15T02:15:23;53.47;;;21.57;;
13404;SDS011;6773;51.192;7.024;2024-01-15T02:20:24;46.93;;;18.67;;
13404;SDS011;6773;51.192;7.024;2024-01-15T02:22:51;45.10;;;18.83;;
13404;SDS011;6773;51.192;7.024;2024-01-15T02:25:17;51.63;;;21.37;;
13404;SDS011;6773;51.192;7.024;2024-01-15T02:27:43;56.97;;;23.00;;
13404;SDS011;6773;51.192;7.024;2024-01-15T02:30:13;49.53;;;18.30;;
13404;SDS011;6773;51.192;7.024;2024-01-15T02:32:39;47.03;;;19.87;;
13404;SDS011;6773;51.192;7.024;2024-01-15T02:35:04;54.97;;;24.40;;
13404;SDS011;6773;51.192;7.024;2024-01-15T02:37:30;48.37;;;22.27;;
13404;SDS011;6773;51.192;7.024;2024-01-15T02:39:56;48.97;;;21.30;;
13404;SDS011;6773;51.192;7.024;2024-01-15T02:42:22;46.03;;;20.83;;
13404;SDS011;6773;51.192;7.024;2024-01-15T02:44:48;52.33;;;21.83;;
13404;SDS011;6773;51.192;7.024;2024-01-15T02:47:14;49.10;;;22.07;;
13404;SDS011;6773;51.192;7.024;2024-01-15T02:49:40;46.80;;;21.07;;
13404;SDS011;6773;51.192;7.024;2024-01-15T02:52:06;42.87;;;19.83;;
13404;SDS011;6773;51.192;7.024;2024-01-15T02:54:32;43.67;;;19.77;;
13404;SDS011;6773;51.192;7.024;2024-01-15T02:56:58;43.17;;;19.23;;
13404;SDS011;6773;51.192;7.024;2024-01-15T02:59:24;44.93;;;20.67;;
13404;SDS011;6773;51.192;7.024;2024-01-15T03:01:50;41.10;;;18.93;;
13404;SDS011;6773;51.192;7.024;2024-01-15T03:04:16;27.67;;;15.07;;
13404;SDS011;6773;51.192;7.024;2024-01-15T03:06:42;45.37;;;21.00;;
13404;SDS011;6773;51.192;7.024;2024-01-15T03:09:08;46.33;;;20.83;;
13404;SDS011;6773;51.192;7.024;2024-01-15T03:11:37;45.97;;;19.87;;
13404;SDS011;6773;51.192;7.024;2024-01-15T03:14:03;42.47;;;19.33;;
13404;SDS011;6773;51.192;7.024;2024-01-15T03:16:29;44.77;;;21.37;;
13404;SDS011;6773;51.192;7.024;2024-01-15T03:18:56;49.67;;;20.47;;
13404;SDS011;6773;51.192;7.024;2024-01-15T03:21:21;16.47;;;10.07;;
13404;SDS011;6773;51.192;7.024;2024-01-15T03:23:47;34.87;;;15.53;;
13404;SDS011;6773;51.192;7.024;2024-01-15T03:26:13;37.50;;;18.40;;
13404;SDS011;6773;51.192;7.024;2024-01-15T03:28:40;45.27;;;18.67;;
13404;SDS011;6773;51.192;7.024;2024-01-15T03:31:07;38.13;;;17.50;;
13404;SDS011;6773;51.192;7.024;2024-01-15T03:33:33;45.77;;;19.17;;
13404;SDS011;6773;51.192;7.024;2024-01-15T03:35:59;34.00;;;16.47;;
13404;SDS011;6773;51.192;7.024;2024-01-15T03:38:26;34.67;;;17.10;;
13404;SDS011;6773;51.192;7.024;2024-01-15T03:40:55;33.47;;;17.00;;
13404;SDS011;6773;51.192;7.024;2024-01-15T03:43:21;46.53;;;20.03;;
13404;SDS011;6773;51.192;7.024;2024-01-15T03:45:47;42.53;;;16.97;;
13404;SDS011;6773;51.192;7.024;2024-01-15T03:48:12;34.03;;;16.80;;
13404;SDS011;6773;51.192;7.024;2024-01-15T03:50:38;38.20;;;18.47;;
13404;SDS011;6773;51.192;7.024;2024-01-15T03:53:04;37.13;;;18.93;;
13404;SDS011;6773;51.192;7.024;2024-01-15T03:55:30;38.40;;;18.43;;
13404;SDS011;6773;51.192;7.024;2024-01-15T03:57:56;44.87;;;19.80;;
13404;SDS011;6773;51.192;7.024;2024-01-15T04:00:22;36.80;;;17.70;;
13404;SDS011;6773;51.192;7.024;2024-01-15T04:02:48;33.17;;;17.43;;
13404;SDS011;6773;51.192;7.024;2024-01-15T04:05:14;30.67;;;17.10;;
13404;SDS011;6773;51.192;7.024;2024-01-15T04:07:40;32.17;;;15.00;;
13404;SDS011;6773;51.192;7.024;2024-01-15T04:10:06;34.43;;;16.37;;
13404;SDS011;6773;51.192;7.024;2024-01-15T04:12:32;40.33;;;18.43;;
13404;SDS011;6773;51.192;7.024;2024-01-15T04:14:58;39.80;;;17.83;;
13404;SDS011;6773;51.192;7.024;2024-01-15T04:17:24;33.35;;;16.60;;
13404;SDS011;6773;51.192;7.024;2024-01-15T04:19:50;23.30;;;11.10;;
13404;SDS011;6773;51.192;7.024;2024-01-15T04:22:16;36.80;;;16.67;;
13404;SDS011;6773;51.192;7.024;2024-01-15T04:24:42;28.57;;;15.60;;
13404;SDS011;6773;51.192;7.024;2024-01-15T04:27:08;37.13;;;17.83;;
13404;SDS011;6773;51.192;7.024;2024-01-15T04:29:34;42.73;;;18.90;;
13404;SDS011;6773;51.192;7.024;2024-01-15T04:32:00;37.37;;;17.63;;
13404;SDS011;6773;51.192;7.024;2024-01-15T04:34:26;27.93;;;16.10;;
13404;SDS011;6773;51.192;7.024;2024-01-15T04:36:52;34.60;;;15.70;;
13404;SDS011;6773;51.192;7.024;2024-01-15T04:39:17;31.70;;;16.73;;
13404;SDS011;6773;51.192;7.024;2024-01-15T04:41:43;32.70;;;17.40;;
13404;SDS011;6773;51.192;7.024;2024-01-15T04:44:09;38.93;;;17.57;;
13404;SDS011;6773;51.192;7.024;2024-01-15T04:46:35;39.97;;;20.37;;
13404;SDS011;6773;51.192;7.024;2024-01-15T04:49:01;35.37;;;16.90;;
13404;SDS011;6773;51.192;7.024;2024-01-15T04:51:27;32.73;;;18.00;;
13404;SDS011;6773;51.192;7.024;2024-01-15T04:53:53;35.37;;;16.97;;
13404;SDS011;6773;51.192;7.024;2024-01-15T04:56:19;35.40;;;16.80;;
13404;SDS011;6773;51.192;7.024;2024-01-15T04:58:45;29.57;;;15.07;;
13404;SDS011;6773;51.192;7.024;2024-01-15T05:01:11;30.90;;;16.07;;
13404;SDS011;6773;51.192;7.024;2024-01-15T05:03:37;31.73;;;15.63;;
13404;SDS011;6773;51.192;7.024;2024-01-15T05:06:04;18.10;;;11.27;;
13404;SDS011;6773;51.192;7.024;2024-01-15T05:08:30;37.57;;;16.53;;
13404;SDS011;6773;51.192;7.024;2024-01-15T05:10:56;28.10;;;14.63;;
13404;SDS011;6773;51.192;7.024;2024-01-15T05:13:21;22.90;;;13.37;;
13404;SDS011;6773;51.192;7.024;2024-01-15T05:15:47;31.63;;;16.67;;
13404;SDS011;6773;51.192;7.024;2024-01-15T05:18:13;30.17;;;15.17;;
13404;SDS011;6773;51.192;7.024;2024-01-15T05:20:39;31.87;;;16.90;;
13404;SDS011;6773;51.192;7.024;2024-01-15T05:23:05;26.17;;;13.40;;
13404;SDS011;6773;51.192;7.024;2024-01-15T05:25:31;28.33;;;13.80;;
13404;SDS011;6773;51.192;7.024;2024-01-15T05:27:57;29.63;;;15.00;;
13404;SDS011;6773;51.192;7.024;2024-01-15T05:30:23;28.53;;;14.17;;
13404;SDS011;6773;51.192;7.024;2024-01-15T05:32:49;32.50;;;15.13;;
13404;SDS011;6773;51.192;7.024;2024-01-15T05:35:15;30.43;;;15.47;;
13404;SDS011;6773;51.192;7.024;2024-01-15T05:37:43;29.10;;;13.17;;
13404;SDS011;6773;51.192;7.024;2024-01-15T05:40:10;26.20;;;14.00;;
13404;SDS011;6773;51.192;7.024;2024-01-15T05:42:36;25.57;;;12.33;;
13404;SDS011;6773;51.192;7.024;2024-01-15T05:45:02;19.10;;;12.27;;
13404;SDS011;6773;51.192;7.024;2024-01-15T05:47:29;30.40;;;14.03;;
13404;SDS011;6773;51.192;7.024;2024-01-15T05:49:56;24.77;;;12.20;;
13404;SDS011;6773;51.192;7.024;2024-01-15T05:52:22;25.60;;;13.83;;
13404;SDS011;6773;51.192;7.024;2024-01-15T05:54:49;27.20;;;14.27;;
13404;SDS011;6773;51.192;7.024;2024-01-15T05:57:15;28.30;;;12.70;;
13404;SDS011;6773;51.192;7.024;2024-01-15T05:59:42;20.00;;;12.60;;
13404;SDS011;6773;51.192;7.024;2024-01-15T06:02:09;25.10;;;12.47;;
13404;SDS011;6773;51.192;7.024;2024-01-15T06:04:35;22.90;;;13.83;;
13404;SDS011;6773;51.192;7.024;2024-01-15T06:07:01;22.87;;;13.60;;
13404;SDS011;6773;51.192;7.024;2024-01-15T06:09:27;26.30;;;12.67;;
13404;SDS011;6773;51.192;7.024;2024-01-15T06:11:53;20.63;;;12.93;;
13404;SDS011;6773;51.192;7.024;2024-01-15T06:14:19;21.57;;;11.70;;
13404;SDS011;6773;51.192;7.024;2024-01-15T06:16:44;18.77;;;11.13;;
13404;SDS011;6773;51.192;7.024;2024-01-15T06:19:10;22.60;;;10.90;;
13404;SDS011;6773;51.192;7.024;2024-01-15T06:21:36;25.83;;;12.63;;
13404;SDS011;6773;51.192;7.024;2024-01-15T06:24:02;21.13;;;11.97;;
13404;SDS011;6773;51.192;7.024;2024-01-15T06:26:28;24.90;;;11.87;;
13404;SDS011;6773;51.192;7.024;2024-01-15T06:28:54;20.53;;;12.53;;
13404;SDS011;6773;51.192;7.024;2024-01-15T06:31:20;19.97;;;10.90;;
13404;SDS011;6773;51.192;7.024;2024-01-15T06:33:46;18.87;;;13.10;;
13404;SDS011;6773;51.192;7.024;2024-01-15T06:36:14;15.10;;;9.00;;
13404;SDS011;6773;51.192;7.024;2024-01-15T06:38:41;20.93;;;13.20;;
13404;SDS011;6773;51.192;7.024;2024-01-15T06:41:07;26.13;;;12.20;;
13404;SDS011;6773;51.192;7.024;2024-01-15T06:43:34;15.10;;;10.13;;
13404;SDS011;6773;51.192;7.024;2024-01-15T06:46:00;24.80;;;11.53;;
13404;SDS011;6773;51.192;7.024;2024-01-15T06:48:26;16.50;;;11.03;;
13404;SDS011;6773;51.192;7.024;2024-01-15T06:50:51;21.57;;;13.17;;
13404;SDS011;6773;51.192;7.024;2024-01-15T06:53:17;18.97;;;11.73;;
13404;SDS011;6773;51.192;7.024;2024-01-15T06:55:43;25.03;;;11.60;;
13404;SDS011;6773;51.192;7.024;2024-01-15T06:58:09;25.40;;;13.27;;
13404;SDS011;6773;51.192;7.024;2024-01-15T07:00:35;15.40;;;9.07;;
13404;SDS011;6773;51.192;7.024;2024-01-15T07:03:01;14.87;;;9.10;;
13404;SDS011;6773;51.192;7.024;2024-01-15T07:05:27;15.47;;;9.97;;
13404;SDS011;6773;51.192;7.024;2024-01-15T07:07:55;15.57;;;9.87;;
13404;SDS011;6773;51.192;7.024;2024-01-15T07:10:21;14.93;;;9.73;;
13404;SDS011;6773;51.192;7.024;2024-01-15T07:12:47;19.53;;;9.83;;
13404;SDS011;6773;51.192;7.024;2024-01-15T07:15:13;19.07;;;10.10;;
13404;SDS011;6773;51.192;7.024;2024-01-15T07:17:39;24.93;;;11.67;;
13404;SDS011;6773;51.192;7.024;2024-01-15T07:20:08;16.97;;;9.63;;
13404;SDS011;6773;51.192;7.024;2024-01-15T07:22:37;16.90;;;10.47;;
13404;SDS011;6773;51.192;7.024;2024-01-15T07:25:04;17.20;;;9.77;;
13404;SDS011;6773;51.192;7.024;2024-01-15T07:27:30;15.93;;;10.63;;
13404;SDS011;6773;51.192;7.024;2024-01-15T07:29:56;20.20;;;10.97;;
13404;SDS011;6773;51.192;7.024;2024-01-15T07:32:23;16.53;;;11.00;;
13404;SDS011;6773;51.192;7.024;2024-01-15T07:34:49;18.30;;;11.50;;
13404;SDS011;6773;51.192;7.024;2024-01-15T07:37:14;26.53;;;15.27;;
13404;SDS011;6773;51.192;7.024;2024-01-15T07:39:40;19.03;;;13.03;;
13404;SDS011;6773;51.192;7.024;2024-01-15T07:42:06;20.47;;;14.40;;
13404;SDS011;6773;51.192;7.024;2024-01-15T07:44:33;26.37;;;14.00;;
13404;SDS011;6773;51.192;7.024;2024-01-15T07:46:59;26.07;;;13.27;;
13404;SDS011;6773;51.192;7.024;2024-01-15T07:49:25;22.27;;;11.93;;
13404;SDS011;6773;51.192;7.024;2024-01-15T07:51:50;18.33;;;11.23;;
13404;SDS011;6773;51.192;7.024;2024-01-15T07:54:16;28.77;;;15.70;;
13404;SDS011;6773;51.192;7.024;2024-01-15T07:56:55;23.17;;;13.73;;
13404;SDS011;6773;51.192;7.024;2024-01-15T07:59:25;29.50;;;14.57;;
13404;SDS011;6773;51.192;7.024;2024-01-15T08:01:51;20.60;;;12.00;;
13404;SDS011;6773;51.192;7.024;2024-01-15T08:04:17;24.17;;;13.47;;
13404;SDS011;6773;51.192;7.024;2024-01-15T08:06:43;28.87;;;12.10;;
13404;SDS011;6773;51.192;7.024;2024-01-15T08:09:09;21.67;;;13.73;;
13404;SDS011;6773;51.192;7.024;2024-01-15T08:11:35;25.70;;;13.07;;
13404;SDS011;6773;51.192;7.024;2024-01-15T08:14:01;23.27;;;15.07;;
13404;SDS011;6773;51.192;7.024;2024-01-15T08:16:26;24.87;;;15.00;;
13404;SDS011;6773;51.192;7.024;2024-01-15T08:18:53;23.33;;;15.10;;
13404;SDS011;6773;51.192;7.024;2024-01-15T08:21:19;21.87;;;13.57;;
13404;SDS011;6773;51.192;7.024;2024-01-15T08:23:45;30.03;;;14.93;;
13404;SDS011;6773;51.192;7.024;2024-01-15T08:26:11;29.67;;;14.53;;
13404;SDS011;6773;51.192;7.024;2024-01-15T08:28:37;25.57;;;15.07;;
13404;SDS011;6773;51.192;7.024;2024-01-15T08:31:02;28.23;;;15.70;;
13404;SDS011;6773;51.192;7.024;2024-01-15T08:33:29;29.87;;;15.20;;
13404;SDS011;6773;51.192;7.024;2024-01-15T08:35:55;32.10;;;17.27;;
13404;SDS011;6773;51.192;7.024;2024-01-15T08:38:21;29.53;;;16.57;;
13404;SDS011;6773;51.192;7.024;2024-01-15T08:40:47;27.67;;;17.20;;
13404;SDS011;6773;51.192;7.024;2024-01-15T08:43:14;35.43;;;18.40;;
13404;SDS011;6773;51.192;7.024;2024-01-15T08:45:39;29.83;;;16.20;;
13404;SDS011;6773;51.192;7.024;2024-01-15T08:48:06;33.80;;;17.43;;
13404;SDS011;6773;51.192;7.024;2024-01-15T08:50:32;29.90;;;16.17;;
13404;SDS011;6773;51.192;7.024;2024-01-15T08:52:58;28.33;;;13.03;;
13404;SDS011;6773;51.192;7.024;2024-01-15T08:55:24;19.27;;;11.20;;
13404;SDS011;6773;51.192;7.024;2024-01-15T08:57:50;24.97;;;14.33;;
13404;SDS011;6773;51.192;7.024;2024-01-15T09:00:16;27.83;;;15.63;;
13404;SDS011;6773;51.192;7.024;2024-01-15T09:02:42;24.10;;;14.10;;
13404;SDS011;6773;51.192;7.024;2024-01-15T09:05:08;20.97;;;13.10;;
13404;SDS011;6773;51.192;7.024;2024-01-15T09:07:34;23.53;;;13.30;;
13404;SDS011;6773;51.192;7.024;2024-01-15T09:10:00;25.67;;;14.33;;
13404;SDS011;6773;51.192;7.024;2024-01-15T09:12:27;18.97;;;11.97;;
13404;SDS011;6773;51.192;7.024;2024-01-15T09:14:53;29.30;;;14.77;;
13404;SDS011;6773;51.192;7.024;2024-01-15T09:17:19;15.93;;;10.03;;
13404;SDS011;6773;51.192;7.024;2024-01-15T09:19:46;21.83;;;11.93;;
13404;SDS011;6773;51.192;7.024;2024-01-15T09:22:12;32.20;;;16.07;;
13404;SDS011;6773;51.192;7.024;2024-01-15T09:24:43;21.63;;;12.67;;
13404;SDS011;6773;51.192;7.024;2024-01-15T09:27:09;25.20;;;14.23;;
13404;SDS011;6773;51.192;7.024;2024-01-15T09:29:35;29.13;;;14.10;;
13404;SDS011;6773;51.192;7.024;2024-01-15T09:32:04;24.73;;;14.27;;
13404;SDS011;6773;51.192;7.024;2024-01-15T09:34:32;21.70;;;13.57;;
13404;SDS011;6773;51.192;7.024;2024-01-15T09:36:58;18.10;;;10.10;;
13404;SDS011;6773;51.192;7.024;2024-01-15T09:39:25;23.83;;;13.93;;
13404;SDS011;6773;51.192;7.024;2024-01-15T09:41:51;21.40;;;13.70;;
13404;SDS011;6773;51.192;7.024;2024-01-15T09:44:17;18.00;;;11.23;;
13404;SDS011;6773;51.192;7.024;2024-01-15T09:46:44;15.07;;;10.07;;
13404;SDS011;6773;51.192;7.024;2024-01-15T09:49:11;16.13;;;10.77;;
13404;SDS011;6773;51.192;7.024;2024-01-15T09:51:37;16.20;;;11.83;;
13404;SDS011;6773;51.192;7.024;2024-01-15T09:54:05;14.53;;;9.60;;
13404;SDS011;6773;51.192;7.024;2024-01-15T09:56:30;20.47;;;12.27;;
13404;SDS011;6773;51.192;7.024;2024-01-15T09:58:56;22.50;;;12.37;;
13404;SDS011;6773;51.192;7.024;2024-01-15T10:01:23;21.67;;;12.47;;
13404;SDS011;6773;51.192;7.024;2024-01-15T10:03:49;18.37;;;11.97;;
13404;SDS011;6773;51.192;7.024;2024-01-15T10:06:16;18.30;;;10.73;;
13404;SDS011;6773;51.192;7.024;2024-01-15T10:08:51;15.47;;;9.53;;
13404;SDS011;6773;51.192;7.024;2024-01-15T10:11:16;21.37;;;13.57;;
13404;SDS011;6773;51.192;7.024;2024-01-15T10:13:48;21.93;;;12.87;;
13404;SDS011;6773;51.192;7.024;2024-01-15T10:16:21;20.63;;;11.33;;
13404;SDS011;6773;51.192;7.024;2024-01-15T10:18:47;20.27;;;13.00;;
13404;SDS011;6773;51.192;7.024;2024-01-15T10:21:13;14.90;;;9.90;;
13404;SDS011;6773;51.192;7.024;2024-01-15T10:23:39;18.23;;;10.53;;
13404;SDS011;6773;51.192;7.024;2024-01-15T10:26:05;16.80;;;11.77;;
13404;SDS011;6773;51.192;7.024;2024-01-15T10:28:31;16.97;;;11.33;;
13404;SDS011;6773;51.192;7.024;2024-01-15T10:30:57;19.27;;;12.20;;
13404;SDS011;6773;51.192;7.024;2024-01-15T10:33:26;17.87;;;11.00;;
13404;SDS011;6773;51.192;7.024;2024-01-15T10:35:53;20.50;;;11.73;;
13404;SDS011;6773;51.192;7.024;2024-01-15T10:38:20;13.70;;;10.33;;
13404;SDS011;6773;51.192;7.024;2024-01-15T10:40:56;16.70;;;9.67;;
13404;SDS011;6773;51.192;7.024;2024-01-15T10:43:22;11.17;;;7.63;;
13404;SDS011;6773;51.192;7.024;2024-01-15T10:45:49;16.97;;;9.50;;
13404;SDS011;6773;51.192;7.024;2024-01-15T10:48:16;12.77;;;9.17;;
13404;SDS011;6773;51.192;7.024;2024-01-15T10:50:43;6.90;;;5.90;;
13404;SDS011;6773;51.192;7.024;2024-01-15T10:53:10;14.00;;;9.27;;
13404;SDS011;6773;51.192;7.024;2024-01-15T10:55:37;12.97;;;9.00;;
13404;SDS011;6773;51.192;7.024;2024-01-15T10:58:04;11.30;;;8.10;;
13404;SDS011;6773;51.192;7.024;2024-01-15T11:00:32;14.70;;;9.60;;
13404;SDS011;6773;51.192;7.024;2024-01-15T11:02:59;13.53;;;8.50;;
13404;SDS011;6773;51.192;7.024;2024-01-15T11:05:26;11.73;;;8.70;;
13404;SDS011;6773;51.192;7.024;2024-01-15T11:07:55;14.10;;;9.60;;
13404;SDS011;6773;51.192;7.024;2024-01-15T11:13:14;11.53;;;5.97;;
13404;SDS011;6773;51.192;7.024;2024-01-15T11:16:00;12.00;;;7.53;;
13404;SDS011;6773;51.192;7.024;2024-01-15T11:18:42;9.50;;;7.50;;
13404;SDS011;6773;51.192;7.024;2024-01-15T11:21:26;8.43;;;5.47;;
13404;SDS011;6773;51.192;7.024;2024-01-15T11:23:56;10.40;;;6.60;;
13404;SDS011;6773;51.192;7.024;2024-01-15T11:28:53;10.13;;;6.67;;
13404;SDS011;6773;51.192;7.024;2024-01-15T11:31:19;4.73;;;4.27;;
13404;SDS011;6773;51.192;7.024;2024-01-15T11:33:51;7.17;;;5.47;;
13404;SDS011;6773;51.192;7.024;2024-01-15T11:36:17;9.03;;;5.97;;
13404;SDS011;6773;51.192;7.024;2024-01-15T11:38:43;7.67;;;5.87;;
13404;SDS011;6773;51.192;7.024;2024-01-15T11:41:13;7.17;;;5.60;;
13404;SDS011;6773;51.192;7.024;2024-01-15T11:43:41;10.70;;;5.27;;
13404;SDS011;6773;51.192;7.024;2024-01-15T11:46:08;7.87;;;5.00;;
13404;SDS011;6773;51.192;7.024;2024-01-15T11:48:45;5.80;;;3.63;;
13404;SDS011;6773;51.192;7.024;2024-01-15T11:51:18;4.53;;;3.60;;
13404;SDS011;6773;51.192;7.024;2024-01-15T11:53:45;8.70;;;4.20;;
13404;SDS011;6773;51.192;7.024;2024-01-15T11:56:17;6.00;;;4.23;;
13404;SDS011;6773;51.192;7.024;2024-01-15T11:58:43;5.87;;;3.97;;
13404;SDS011;6773;51.192;7.024;2024-01-15T12:01:13;7.33;;;3.93;;
13404;SDS011;6773;51.192;7.024;2024-01-15T12:03:39;4.23;;;3.67;;
13404;SDS011;6773;51.192;7.024;2024-01-15T12:06:08;5.83;;;4.37;;
13404;SDS011;6773;51.192;7.024;2024-01-15T12:08:35;7.20;;;4.50;;
13404;SDS011;6773;51.192;7.024;2024-01-15T12:11:03;5.03;;;4.53;;
13404;SDS011;6773;51.192;7.024;2024-01-15T12:13:32;6.20;;;4.47;;
13404;SDS011;6773;51.192;7.024;2024-01-15T12:15:59;9.30;;;4.90;;
13404;SDS011;6773;51.192;7.024;2024-01-15T12:18:27;4.83;;;3.73;;
13404;SDS011;6773;51.192;7.024;2024-01-15T12:20:53;5.87;;;4.83;;
13404;SDS011;6773;51.192;7.024;2024-01-15T12:23:19;8.27;;;5.37;;
13404;SDS011;6773;51.192;7.024;2024-01-15T12:25:45;9.33;;;4.20;;
13404;SDS011;6773;51.192;7.024;2024-01-15T12:28:12;8.03;;;5.30;;
13404;SDS011;6773;51.192;7.024;2024-01-15T12:30:37;9.20;;;4.73;;
13404;SDS011;6773;51.192;7.024;2024-01-15T12:33:04;7.73;;;6.37;;
13404;SDS011;6773;51.192;7.024;2024-01-15T12:35:30;13.70;;;6.30;;
13404;SDS011;6773;51.192;7.024;2024-01-15T12:37:56;8.17;;;5.67;;
13404;SDS011;6773;51.192;7.024;2024-01-15T12:40:23;10.20;;;5.70;;
13404;SDS011;6773;51.192;7.024;2024-01-15T12:42:49;5.33;;;4.83;;
13404;SDS011;6773;51.192;7.024;2024-01-15T12:45:15;7.13;;;6.07;;
13404;SDS011;6773;51.192;7.024;2024-01-15T12:47:41;7.77;;;5.50;;
13404;SDS011;6773;51.192;7.024;2024-01-15T12:50:09;6.30;;;4.77;;
13404;SDS011;6773;51.192;7.024;2024-01-15T12:52:36;9.13;;;5.50;;
13404;SDS011;6773;51.192;7.024;2024-01-15T12:55:04;8.77;;;6.43;;
13404;SDS011;6773;51.192;7.024;2024-01-15T12:57:31;6.40;;;5.03;;
13404;SDS011;6773;51.192;7.024;2024-01-15T12:59:57;12.80;;;6.33;;
13404;SDS011;6773;51.192;7.024;2024-01-15T13:02:23;6.00;;;5.27;;
13404;SDS011;6773;51.192;7.024;2024-01-15T13:04:49;9.27;;;6.90;;
13404;SDS011;6773;51.192;7.024;2024-01-15T13:07:15;10.20;;;7.03;;
13404;SDS011;6773;51.192;7.024;2024-01-15T13:09:42;10.43;;;7.80;;
13404;SDS011;6773;51.192;7.024;2024-01-15T13:12:08;11.03;;;8.43;;
13404;SDS011;6773;51.192;7.024;2024-01-15T13:14:34;9.33;;;6.47;;
13404;SDS011;6773;51.192;7.024;2024-01-15T13:17:01;11.33;;;8.43;;
13404;SDS011;6773;51.192;7.024;2024-01-15T13:19:28;9.80;;;6.97;;
13404;SDS011;6773;51.192;7.024;2024-01-15T13:21:54;12.53;;;8.87;;
13404;SDS011;6773;51.192;7.024;2024-01-15T13:24:21;7.83;;;6.73;;
13404;SDS011;6773;51.192;7.024;2024-01-15T13:26:47;9.30;;;7.73;;
13404;SDS011;6773;51.192;7.024;2024-01-15T13:29:13;10.03;;;7.43;;
13404;SDS011;6773;51.192;7.024;2024-01-15T13:31:40;7.83;;;6.47;;
13404;SDS011;6773;51.192;7.024;2024-01-15T13:34:06;9.87;;;7.07;;
13404;SDS011;6773;51.192;7.024;2024-01-15T13:36:32;11.47;;;7.57;;
13404;SDS011;6773;51.192;7.024;2024-01-15T13:38:58;8.30;;;6.30;;
13404;SDS011;6773;51.192;7.024;2024-01-15T13:41:24;6.93;;;6.23;;
13404;SDS011;6773;51.192;7.024;2024-01-15T13:43:52;8.63;;;5.70;;
13404;SDS011;6773;51.192;7.024;2024-01-15T13:46:18;7.57;;;6.20;;
13404;SDS011;6773;51.192;7.024;2024-01-15T13:48:44;6.73;;;5.53;;
13404;SDS011;6773;51.192;7.024;2024-01-15T13:51:11;11.23;;;7.33;;
13404;SDS011;6773;51.192;7.024;2024-01-15T13:53:40;10.23;;;6.97;;
13404;SDS011;6773;51.192;7.024;2024-01-15T13:56:06;5.37;;;4.87;;
13404;SDS011;6773;51.192;7.024;2024-01-15T13:58:33;6.93;;;5.47;;
13404;SDS011;6773;51.192;7.024;2024-01-15T14:01:01;7.33;;;5.50;;
13404;SDS011;6773;51.192;7.024;2024-01-15T14:03:31;6.73;;;4.37;;
13404;SDS011;6773;51.192;7.024;2024-01-15T14:05:56;4.03;;;3.73;;
13404;SDS011;6773;51.192;7.024;2024-01-15T14:08:23;5.00;;;3.97;;
13404;SDS011;6773;51.192;7.024;2024-01-15T14:10:50;5.57;;;5.00;;
13404;SDS011;6773;51.192;7.024;2024-01-15T14:13:16;9.53;;;4.93;;
13404;SDS011;6773;51.192;7.024;2024-01-15T14:15:42;3.67;;;3.37;;
13404;SDS011;6773;51.192;7.024;2024-01-15T14:18:08;3.10;;;2.80;;
13404;SDS011;6773;51.192;7.024;2024-01-15T14:20:34;4.67;;;3.87;;
13404;SDS011;6773;51.192;7.024;2024-01-15T14:23:00;3.47;;;3.20;;
13404;SDS011;6773;51.192;7.024;2024-01-15T14:25:26;4.07;;;3.77;;
13404;SDS011;6773;51.192;7.024;2024-01-15T14:27:52;3.87;;;3.50;;
13404;SDS011;6773;51.192;7.024;2024-01-15T14:30:18;5.97;;;3.60;;
13404;SDS011;6773;51.192;7.024;2024-01-15T14:32:44;3.30;;;2.73;;
13404;SDS011;6773;51.192;7.024;2024-01-15T14:35:09;5.00;;;3.93;;
13404;SDS011;6773;51.192;7.024;2024-01-15T14:37:38;3.40;;;3.10;;
13404;SDS011;6773;51.192;7.024;2024-01-15T14:40:04;6.47;;;3.30;;
13404;SDS011;6773;51.192;7.024;2024-01-15T14:42:32;2.97;;;2.47;;
13404;SDS011;6773;51.192;7.024;2024-01-15T14:44:58;4.40;;;3.03;;